createdAt,value
2019-01-25T00:00:15.012Z,37.50
2019-01-25T00:01:14.983Z,35.90
2019-01-25T00:02:14.977Z,37.20
2019-01-25T00:03:14.997Z,36.50
2019-01-25T00:04:14.958Z,37.20
2019-01-25T00:05:14.945Z,36.80
2019-01-25T00:06:14.929Z,37.30
2019-01-25T00:07:14.920Z,36.60
2019-01-25T00:08:14.928Z,35.60
2019-01-25T00:09:14.915Z,37.30
2019-01-25T00:10:14.885Z,36.20
2019-01-25T00:11:14.874Z,36.60
2019-01-25T00:12:14.864Z,37.20
2019-01-25T00:13:14.888Z,37.00
2019-01-25T00:14:14.844Z,37.80
2019-01-25T00:15:14.844Z,37.10
2019-01-25T00:16:14.822Z,38.10
2019-01-25T00:17:14.891Z,38.80
2019-01-25T00:18:14.800Z,37.70
2019-01-25T00:19:14.801Z,38.60
2019-01-25T00:20:14.789Z,37.50
2019-01-25T00:21:14.787Z,38.50
2019-01-25T00:22:14.760Z,38.50
2019-01-25T00:23:14.748Z,37.70
2019-01-25T00:24:14.751Z,38.50
2019-01-25T00:25:14.730Z,37.80
2019-01-25T00:26:14.720Z,38.40
2019-01-25T00:27:14.707Z,39.40
2019-01-25T00:28:14.691Z,36.90
2019-01-25T00:29:14.691Z,38.10
2019-01-25T00:30:14.674Z,37.40
2019-01-25T00:31:14.660Z,36.90
2019-01-25T00:32:14.668Z,38.20
2019-01-25T00:33:14.642Z,37.80
2019-01-25T00:34:14.642Z,38.10
2019-01-25T00:35:14.615Z,37.20
2019-01-25T00:36:14.694Z,38.80
2019-01-25T00:37:14.657Z,38.60
2019-01-25T00:38:14.581Z,38.50
2019-01-25T00:39:14.640Z,38.80
2019-01-25T00:40:14.563Z,38.40
2019-01-25T00:41:14.549Z,37.90
2019-01-25T00:42:14.543Z,39.50
2019-01-25T00:43:14.540Z,38.40
2019-01-25T00:44:14.536Z,38.50
2019-01-25T00:45:14.514Z,37.50
2019-01-25T00:46:14.500Z,38.00
2019-01-25T00:47:14.483Z,37.70
2019-01-25T00:48:14.487Z,39.30
2019-01-25T00:49:14.493Z,38.00
2019-01-25T00:50:14.453Z,38.40
2019-01-25T00:51:14.448Z,37.40
2019-01-25T00:52:14.436Z,38.10
2019-01-25T00:53:14.436Z,39.20
2019-01-25T00:54:14.412Z,37.90
2019-01-25T00:55:14.417Z,38.00
2019-01-25T00:56:14.394Z,37.70
2019-01-25T00:57:14.384Z,38.60
2019-01-25T00:58:14.365Z,36.10
2019-01-25T00:59:14.354Z,38.80
2019-01-25T01:00:14.357Z,38.30
2019-01-25T01:01:14.330Z,38.00
2019-01-25T01:02:14.328Z,37.60
2019-01-25T01:03:14.328Z,39.70
2019-01-25T01:04:14.299Z,37.40
2019-01-25T01:05:14.301Z,38.50
2019-01-25T01:06:14.282Z,37.80
2019-01-25T01:07:14.267Z,37.00
2019-01-25T01:08:14.260Z,37.90
2019-01-25T01:09:14.253Z,37.80
2019-01-25T01:10:14.466Z,37.40
2019-01-25T01:11:14.227Z,37.60
2019-01-25T01:12:14.216Z,36.20
2019-01-25T01:13:14.205Z,36.90
2019-01-25T01:14:14.216Z,37.80
2019-01-25T01:15:14.207Z,37.30
2019-01-25T01:16:14.169Z,36.80
2019-01-25T01:17:14.170Z,38.80
2019-01-25T01:18:14.157Z,37.20
2019-01-25T01:19:14.141Z,38.00
2019-01-25T01:20:14.159Z,36.60
2019-01-25T01:21:14.113Z,37.50
2019-01-25T01:22:14.114Z,35.70
2019-01-25T01:23:14.098Z,36.20
2019-01-25T01:24:14.091Z,37.00
2019-01-25T01:25:14.073Z,36.40
2019-01-25T01:26:14.074Z,36.20
2019-01-25T01:27:14.049Z,35.90
2019-01-25T01:28:14.039Z,36.60
2019-01-25T01:29:14.028Z,36.50
2019-01-25T01:30:14.016Z,36.40
2019-01-25T01:31:14.022Z,35.80
2019-01-25T01:32:14.001Z,35.80
2019-01-25T01:33:13.982Z,35.70
2019-01-25T01:34:13.971Z,35.10
2019-01-25T01:35:13.969Z,35.50
2019-01-25T01:36:13.966Z,35.00
2019-01-25T01:37:13.940Z,34.80
2019-01-25T01:38:13.928Z,35.70
2019-01-25T01:39:13.931Z,35.40
2019-01-25T01:40:13.907Z,35.30
2019-01-25T01:41:13.911Z,35.90
2019-01-25T01:42:13.896Z,35.20
2019-01-25T01:43:13.873Z,34.80
2019-01-25T01:44:13.864Z,36.40
2019-01-25T01:45:13.853Z,36.10
2019-01-25T01:46:13.861Z,34.50
2019-01-25T01:47:13.831Z,36.30
2019-01-25T01:48:13.820Z,35.10
2019-01-25T01:49:13.807Z,35.70
2019-01-25T01:50:13.799Z,35.60
2019-01-25T01:51:13.797Z,37.40
2019-01-25T01:52:13.774Z,37.10
2019-01-25T01:53:13.761Z,35.70
2019-01-25T01:54:13.753Z,36.20
2019-01-25T01:55:13.747Z,36.70
2019-01-25T01:56:13.754Z,36.20
2019-01-25T01:57:13.719Z,36.20
2019-01-25T01:58:13.709Z,36.70
2019-01-25T01:59:13.696Z,36.00
2019-01-25T02:00:13.687Z,35.10
2019-01-25T02:01:13.701Z,37.20
2019-01-25T02:02:13.672Z,36.00
2019-01-25T02:03:13.656Z,35.90
2019-01-25T02:04:13.643Z,35.90
2019-01-25T02:05:13.634Z,36.40
2019-01-25T02:06:13.622Z,36.70
2019-01-25T02:07:13.625Z,35.10
2019-01-25T02:08:13.603Z,35.90
2019-01-25T02:09:13.588Z,37.20
2019-01-25T02:10:13.578Z,36.50
2019-01-25T02:11:13.567Z,35.80
2019-01-25T02:12:13.566Z,36.50
2019-01-25T02:13:13.571Z,35.80
2019-01-25T02:14:13.546Z,35.60
2019-01-25T02:15:13.523Z,37.60
2019-01-25T02:16:13.511Z,36.70
2019-01-25T02:17:13.513Z,36.60
2019-01-25T02:18:13.490Z,36.30
2019-01-25T02:19:13.484Z,37.00
2019-01-25T02:20:13.474Z,36.40
2019-01-25T02:21:13.459Z,36.00
2019-01-25T02:22:13.467Z,36.50
2019-01-25T02:23:13.437Z,36.00
2019-01-25T02:24:13.425Z,37.30
2019-01-25T02:25:13.432Z,36.40
2019-01-25T02:26:13.414Z,36.40
2019-01-25T02:27:13.392Z,36.50
2019-01-25T02:28:13.394Z,36.50
2019-01-25T02:29:13.371Z,37.60
2019-01-25T02:30:13.365Z,37.50
2019-01-25T02:31:13.355Z,35.80
2019-01-25T02:32:13.358Z,36.50
2019-01-25T02:33:13.346Z,36.50
2019-01-25T02:34:13.317Z,36.60
2019-01-25T02:35:13.310Z,36.10
2019-01-25T02:36:13.300Z,37.40
2019-01-25T02:37:13.294Z,36.40
2019-01-25T02:38:13.290Z,36.50
2019-01-25T02:39:13.263Z,36.70
2019-01-25T02:40:13.251Z,35.70
2019-01-25T02:41:13.240Z,35.90
2019-01-25T02:42:13.235Z,35.60
2019-01-25T02:43:13.229Z,35.60
2019-01-25T02:44:13.211Z,34.50
2019-01-25T02:45:13.197Z,35.70
2019-01-25T02:46:13.188Z,35.80
2019-01-25T02:47:13.175Z,34.90
2019-01-25T02:48:13.183Z,35.10
2019-01-25T02:49:13.154Z,35.60
2019-01-25T02:50:13.144Z,34.80
2019-01-25T02:51:13.132Z,35.80
2019-01-25T02:52:13.120Z,34.70
2019-01-25T02:53:13.122Z,36.30
2019-01-25T02:54:13.102Z,35.90
2019-01-25T02:55:13.089Z,36.10
2019-01-25T02:56:13.083Z,35.60
2019-01-25T02:57:13.070Z,36.20
2019-01-25T02:58:13.068Z,36.00
2019-01-25T02:59:13.046Z,35.20
2019-01-25T03:00:13.037Z,36.00
2019-01-25T03:01:13.028Z,36.20
2019-01-25T03:02:13.030Z,36.40
2019-01-25T03:03:13.013Z,36.50
2019-01-25T03:04:12.994Z,37.00
2019-01-25T03:05:12.988Z,37.40
2019-01-25T03:06:12.970Z,37.70
2019-01-25T03:07:12.971Z,36.70
2019-01-25T03:08:12.967Z,37.20
2019-01-25T03:09:12.937Z,36.80
2019-01-25T03:10:12.926Z,36.50
2019-01-25T03:11:12.916Z,37.50
2019-01-25T03:12:12.907Z,36.40
2019-01-25T03:13:12.898Z,36.60
2019-01-25T03:14:12.893Z,35.80
2019-01-25T03:15:12.873Z,35.10
2019-01-25T03:16:12.873Z,36.40
2019-01-25T03:17:12.852Z,35.10
2019-01-25T03:18:12.840Z,35.40
2019-01-25T03:19:12.840Z,36.90
2019-01-25T03:20:12.829Z,35.90
2019-01-25T03:21:12.807Z,35.80
2019-01-25T03:22:12.799Z,37.10
2019-01-25T03:23:12.805Z,37.50
2019-01-25T03:24:12.787Z,36.60
2019-01-25T03:25:12.764Z,36.10
2019-01-25T03:26:12.758Z,36.30
2019-01-25T03:27:12.753Z,35.90
2019-01-25T03:28:12.736Z,36.40
2019-01-25T03:29:12.743Z,36.10
2019-01-25T03:30:12.713Z,35.30
2019-01-25T03:31:12.701Z,36.20
2019-01-25T03:32:12.698Z,37.20
2019-01-25T03:33:12.678Z,36.40
2019-01-25T03:34:12.686Z,37.60
2019-01-25T03:35:12.659Z,37.20
2019-01-25T03:36:12.646Z,37.70
2019-01-25T03:37:12.635Z,37.60
2019-01-25T03:38:12.632Z,37.40
2019-01-25T03:39:12.641Z,38.20
2019-01-25T03:40:12.601Z,37.40
2019-01-25T03:41:12.591Z,37.80
2019-01-25T03:42:12.583Z,37.60
2019-01-25T03:43:12.570Z,38.00
2019-01-25T03:44:12.605Z,37.50
2019-01-25T03:45:12.551Z,37.80
2019-01-25T03:46:12.538Z,37.70
2019-01-25T03:47:12.531Z,35.80
2019-01-25T03:48:12.514Z,38.50
2019-01-25T03:49:12.509Z,37.30
2019-01-25T03:50:12.522Z,37.50
2019-01-25T03:51:12.481Z,37.10
2019-01-25T03:52:12.472Z,37.90
2019-01-25T03:53:12.466Z,38.70
2019-01-25T03:54:12.449Z,37.80
2019-01-25T03:55:12.469Z,37.50
2019-01-25T03:56:12.430Z,38.20
2019-01-25T03:57:12.414Z,37.30
2019-01-25T03:58:12.404Z,38.00
2019-01-25T03:59:12.393Z,38.40
2019-01-25T04:00:12.401Z,37.80
2019-01-25T04:01:12.375Z,37.80
2019-01-25T04:02:12.370Z,36.20
2019-01-25T04:03:12.352Z,37.70
2019-01-25T04:04:12.338Z,36.50
2019-01-25T04:05:12.340Z,37.70
2019-01-25T04:06:12.316Z,37.90
2019-01-25T04:07:12.310Z,37.60
2019-01-25T04:08:12.296Z,37.30
2019-01-25T04:09:12.284Z,37.40
2019-01-25T04:10:12.295Z,37.10
2019-01-25T04:11:12.266Z,38.90
2019-01-25T04:12:12.254Z,37.60
2019-01-25T04:13:12.245Z,37.00
2019-01-25T04:14:12.233Z,37.60
2019-01-25T04:15:12.224Z,38.00
2019-01-25T04:16:12.219Z,37.50
2019-01-25T04:17:12.199Z,37.50
2019-01-25T04:18:12.193Z,36.60
2019-01-25T04:19:12.181Z,36.60
2019-01-25T04:20:12.176Z,37.40
2019-01-25T04:21:12.169Z,36.90
2019-01-25T04:22:12.144Z,36.50
2019-01-25T04:23:12.133Z,36.40
2019-01-25T04:24:12.122Z,38.40
2019-01-25T04:25:12.109Z,37.70
2019-01-25T04:26:12.124Z,36.30
2019-01-25T04:27:12.092Z,38.10
2019-01-25T04:28:12.080Z,36.30
2019-01-25T04:29:12.070Z,37.20
2019-01-25T04:30:12.056Z,37.30
2019-01-25T04:31:12.073Z,37.10
2019-01-25T04:32:12.081Z,36.90
2019-01-25T04:33:12.023Z,37.60
2019-01-25T04:34:12.013Z,37.20
2019-01-25T04:35:12.010Z,37.00
2019-01-25T04:36:12.011Z,37.10
2019-01-25T04:37:11.988Z,36.80
2019-01-25T04:38:11.982Z,37.90
2019-01-25T04:39:11.960Z,36.50
2019-01-25T04:40:11.947Z,37.80
2019-01-25T04:41:12.107Z,38.00
2019-01-25T04:42:11.930Z,37.80
2019-01-25T04:43:11.915Z,40.00
2019-01-25T04:44:11.905Z,39.40
2019-01-25T04:45:11.891Z,38.50
2019-01-25T04:46:11.882Z,39.50
2019-01-25T04:47:11.887Z,38.90
2019-01-25T04:48:11.859Z,39.90
2019-01-25T04:49:11.849Z,40.80
2019-01-25T04:50:11.839Z,40.70
2019-01-25T04:51:11.834Z,40.90
2019-01-25T04:52:11.834Z,41.20
2019-01-25T04:53:11.819Z,42.70
2019-01-25T04:54:11.801Z,42.60
2019-01-25T04:55:11.789Z,41.50
2019-01-25T04:56:11.808Z,41.00
2019-01-25T04:57:11.840Z,42.30
2019-01-25T04:58:11.753Z,41.00
2019-01-25T04:59:11.744Z,42.70
2019-01-25T05:00:11.735Z,44.50
2019-01-25T05:01:11.725Z,44.20
2019-01-25T05:02:11.729Z,43.10
2019-01-25T05:03:11.697Z,43.70
2019-01-25T05:04:11.702Z,44.50
2019-01-25T05:05:11.688Z,45.40
2019-01-25T05:06:11.666Z,44.80
2019-01-25T05:07:11.667Z,44.10
2019-01-25T05:08:11.646Z,44.10
2019-01-25T05:09:11.632Z,43.20
2019-01-25T05:10:11.629Z,43.50
2019-01-25T05:11:19.358Z,44.70
2019-01-25T05:12:12.625Z,44.40
2019-01-25T05:13:11.592Z,44.10
2019-01-25T05:14:11.578Z,45.80
2019-01-25T05:15:11.571Z,44.00
2019-01-25T05:16:11.572Z,44.50
2019-01-25T05:17:11.552Z,46.00
2019-01-25T05:18:11.555Z,46.00
2019-01-25T05:19:11.526Z,44.70
2019-01-25T05:20:11.521Z,44.70
2019-01-25T05:21:11.504Z,45.00
2019-01-25T05:22:11.495Z,45.50
2019-01-25T05:23:11.502Z,45.40
2019-01-25T05:24:11.469Z,45.30
2019-01-25T05:25:11.463Z,46.80
2019-01-25T05:26:11.446Z,47.10
2019-01-25T05:27:11.444Z,47.80
2019-01-25T05:28:11.439Z,45.60
2019-01-25T05:29:11.412Z,47.30
2019-01-25T05:30:11.405Z,45.20
2019-01-25T05:31:11.396Z,46.80
2019-01-25T05:32:11.387Z,46.60
2019-01-25T05:33:11.395Z,47.40
2019-01-25T05:34:11.372Z,46.40
2019-01-25T05:35:11.347Z,46.00
2019-01-25T05:36:11.352Z,45.60
2019-01-25T05:37:11.326Z,45.00
2019-01-25T05:38:11.337Z,43.60
2019-01-25T05:39:11.325Z,45.30
2019-01-25T05:40:11.293Z,45.50
2019-01-25T05:41:11.287Z,45.30
2019-01-25T05:42:11.278Z,45.00
2019-01-25T05:43:11.280Z,47.00
2019-01-25T05:44:11.253Z,46.90
2019-01-25T05:45:11.239Z,44.50
2019-01-25T05:46:11.233Z,47.00
2019-01-25T05:47:11.219Z,46.50
2019-01-25T05:48:11.231Z,47.70
2019-01-25T05:49:11.209Z,45.80
2019-01-25T05:50:11.199Z,46.80
2019-01-25T05:51:11.178Z,46.60
2019-01-25T05:52:11.169Z,45.50
2019-01-25T05:53:11.150Z,49.00
2019-01-25T05:54:11.161Z,44.90
2019-01-25T05:55:11.134Z,44.80
2019-01-25T05:56:11.125Z,45.30
2019-01-25T05:57:11.116Z,45.80
2019-01-25T05:58:11.098Z,46.20
2019-01-25T05:59:11.099Z,44.60
2019-01-25T06:00:11.074Z,46.80
2019-01-25T06:01:11.073Z,45.40
2019-01-25T06:02:11.057Z,45.40
2019-01-25T06:03:11.079Z,47.20
2019-01-25T06:04:11.053Z,45.00
2019-01-25T06:05:11.020Z,45.80
2019-01-25T06:06:11.008Z,45.10
2019-01-25T06:07:11.005Z,45.20
2019-01-25T06:08:10.994Z,44.90
2019-01-25T06:09:11.005Z,45.00
2019-01-25T06:10:10.967Z,44.80
2019-01-25T06:11:10.955Z,44.90
2019-01-25T06:12:10.978Z,45.60
2019-01-25T06:13:10.947Z,45.70
2019-01-25T06:14:10.938Z,44.30
2019-01-25T06:15:10.919Z,45.90
2019-01-25T06:16:10.907Z,44.80
2019-01-25T06:17:10.891Z,44.10
2019-01-25T06:18:10.907Z,44.10
2019-01-25T06:19:10.904Z,45.00
2019-01-25T06:20:10.862Z,45.00
2019-01-25T06:21:10.846Z,43.70
2019-01-25T06:22:10.836Z,45.20
2019-01-25T06:23:10.826Z,45.20
2019-01-25T06:24:10.830Z,46.50
2019-01-25T06:25:10.822Z,46.20
2019-01-25T06:26:10.794Z,45.20
2019-01-25T06:27:10.780Z,43.60
2019-01-25T06:28:10.781Z,44.50
2019-01-25T06:29:10.785Z,45.30
2019-01-25T06:30:10.756Z,44.40
2019-01-25T06:31:10.749Z,45.50
2019-01-25T06:32:10.729Z,45.60
2019-01-25T06:33:10.714Z,46.40
2019-01-25T06:34:10.702Z,46.20
2019-01-25T06:35:10.712Z,44.80
2019-01-25T06:36:10.702Z,45.40
2019-01-25T06:37:10.671Z,45.20
2019-01-25T06:38:10.671Z,45.80
2019-01-25T06:39:10.655Z,45.40
2019-01-25T06:40:10.654Z,45.90
2019-01-25T06:41:10.638Z,43.90
2019-01-25T06:42:10.638Z,41.70
2019-01-25T06:43:10.615Z,43.50
2019-01-25T06:44:10.594Z,44.90
2019-01-25T06:45:10.600Z,45.40
2019-01-25T06:46:10.591Z,45.10
2019-01-25T06:47:10.571Z,45.20
2019-01-25T06:48:10.587Z,45.70
2019-01-25T06:49:10.543Z,46.40
2019-01-25T06:50:10.559Z,44.80
2019-01-25T06:51:10.519Z,46.10
2019-01-25T06:52:10.511Z,46.80
2019-01-25T06:53:10.505Z,46.50
2019-01-25T06:54:10.486Z,46.70
2019-01-25T06:55:10.525Z,47.10
2019-01-25T06:56:10.467Z,45.80
2019-01-25T06:57:10.456Z,46.50
2019-01-25T06:58:10.444Z,46.10
2019-01-25T06:59:10.434Z,47.50
2019-01-25T07:00:10.437Z,45.80
2019-01-25T07:01:10.432Z,46.30
2019-01-25T07:02:10.401Z,45.50
2019-01-25T07:03:10.390Z,45.30
2019-01-25T07:04:10.385Z,46.30
2019-01-25T07:05:10.406Z,47.20
2019-01-25T07:06:10.355Z,46.70
2019-01-25T07:07:10.345Z,44.80
2019-01-25T07:08:10.336Z,45.60
2019-01-25T07:09:10.326Z,47.30
2019-01-25T07:10:10.341Z,47.70
2019-01-25T07:11:10.310Z,46.20
2019-01-25T07:12:10.298Z,46.90
2019-01-25T07:13:10.280Z,46.60
2019-01-25T07:14:10.270Z,45.20
2019-01-25T07:15:10.266Z,46.20
2019-01-25T07:16:10.270Z,45.60
2019-01-25T07:17:10.237Z,46.30
2019-01-25T07:18:10.227Z,44.90
2019-01-25T07:19:10.214Z,44.60
2019-01-25T07:20:10.202Z,45.90
2019-01-25T07:21:10.221Z,44.70
2019-01-25T07:22:10.184Z,45.80
2019-01-25T07:23:10.171Z,47.20
2019-01-25T07:24:10.171Z,43.80
2019-01-25T07:25:10.148Z,46.10
2019-01-25T07:26:10.182Z,45.60
2019-01-25T07:27:10.129Z,46.70
2019-01-25T07:28:10.119Z,46.60
2019-01-25T07:29:10.108Z,45.20
2019-01-25T07:30:10.123Z,44.50
2019-01-25T07:31:10.101Z,44.60
2019-01-25T07:32:10.073Z,44.20
2019-01-25T07:33:10.071Z,45.70
2019-01-25T07:34:10.068Z,45.90
2019-01-25T07:35:10.046Z,45.50
2019-01-25T07:36:10.043Z,45.20
2019-01-25T07:37:10.042Z,45.40
2019-01-25T07:38:10.013Z,46.40
2019-01-25T07:39:10.001Z,46.60
2019-01-25T07:40:09.999Z,45.20
2019-01-25T07:41:09.986Z,46.30
2019-01-25T07:42:09.962Z,44.50
2019-01-25T07:43:09.953Z,44.30
2019-01-25T07:44:09.961Z,45.50
2019-01-25T07:45:09.942Z,45.80
2019-01-25T07:46:09.951Z,45.00
2019-01-25T07:47:09.920Z,46.70
2019-01-25T07:48:09.900Z,47.10
2019-01-25T07:49:09.891Z,45.30
2019-01-25T07:50:09.896Z,45.30
2019-01-25T07:51:09.879Z,45.10
2019-01-25T07:52:09.901Z,45.50
2019-01-25T07:53:09.851Z,45.90
2019-01-25T07:54:09.833Z,43.30
2019-01-25T07:55:09.837Z,43.10
2019-01-25T07:56:09.870Z,45.10
2019-01-25T07:57:09.798Z,46.90
2019-01-25T07:58:09.787Z,46.90
2019-01-25T07:59:09.777Z,46.40
2019-01-25T08:00:09.807Z,45.00
2019-01-25T08:01:09.773Z,44.30
2019-01-25T08:02:09.755Z,45.10
2019-01-25T08:03:09.797Z,45.10
2019-01-25T08:04:09.729Z,46.10
2019-01-25T08:05:10.691Z,46.60
2019-01-25T08:06:09.748Z,46.20
2019-01-25T08:07:09.733Z,47.10
2019-01-25T08:08:09.689Z,48.70
2019-01-25T08:09:09.672Z,47.30
2019-01-25T08:10:09.721Z,44.80
2019-01-25T08:11:09.723Z,44.40
2019-01-25T08:12:09.666Z,43.40
2019-01-25T08:13:09.829Z,44.30
2019-01-25T08:14:09.617Z,45.20
2019-01-25T08:15:09.606Z,45.20
2019-01-25T08:16:09.594Z,44.10
2019-01-25T08:17:09.620Z,44.90
2019-01-25T08:18:09.582Z,45.70
2019-01-25T08:19:09.578Z,44.50
2019-01-25T08:20:09.546Z,47.40
2019-01-25T08:21:09.536Z,45.40
2019-01-25T08:22:09.562Z,47.20
2019-01-25T08:23:09.534Z,46.70
2019-01-25T08:24:09.508Z,47.00
2019-01-25T08:25:09.492Z,45.60
2019-01-25T08:26:09.506Z,46.90
2019-01-25T08:27:09.516Z,46.30
2019-01-25T08:28:09.462Z,44.00
2019-01-25T08:29:09.459Z,46.20
2019-01-25T08:30:09.443Z,46.30
2019-01-25T08:31:09.427Z,47.30
2019-01-25T08:32:09.427Z,46.50
2019-01-25T08:33:09.405Z,46.90
2019-01-25T08:34:09.395Z,44.90
2019-01-25T08:35:09.388Z,46.00
2019-01-25T08:36:09.390Z,44.80
2019-01-25T08:37:09.379Z,45.20
2019-01-25T08:38:09.350Z,47.00
2019-01-25T08:39:09.346Z,48.00
2019-01-25T08:40:09.399Z,47.10
2019-01-25T08:41:09.331Z,55.20
2019-01-25T08:42:15.446Z,47.00
2019-01-25T08:43:10.293Z,48.40
2019-01-25T08:44:09.288Z,47.10
2019-01-25T08:45:09.273Z,46.50
2019-01-25T08:46:09.339Z,46.00
2019-01-25T08:47:09.255Z,47.10
2019-01-25T08:48:09.274Z,45.50
2019-01-25T08:49:09.253Z,48.00
2019-01-25T08:50:09.219Z,47.70
2019-01-25T08:51:09.235Z,48.20
2019-01-25T08:52:10.778Z,47.10
2019-01-25T08:53:09.208Z,47.60
2019-01-25T08:54:09.189Z,47.50
2019-01-25T08:55:09.180Z,47.20
2019-01-25T08:56:09.173Z,48.10
2019-01-25T08:57:09.258Z,48.40
2019-01-25T08:58:09.152Z,48.20
2019-01-25T08:59:09.212Z,47.20
2019-01-25T09:00:09.112Z,45.30
2019-01-25T09:01:09.100Z,47.10
2019-01-25T09:02:09.089Z,48.00
2019-01-25T09:03:09.119Z,46.80
2019-01-25T09:04:09.070Z,47.40
2019-01-25T09:05:09.471Z,49.50
2019-01-25T09:06:09.062Z,47.80
2019-01-25T09:07:09.034Z,47.90
2019-01-25T09:08:09.027Z,48.00
2019-01-25T09:09:09.028Z,48.20
2019-01-25T09:10:09.009Z,49.40
2019-01-25T09:11:08.991Z,47.90
2019-01-25T09:12:09.005Z,48.90
2019-01-25T09:13:08.971Z,47.90
2019-01-25T09:14:08.971Z,47.90
2019-01-25T09:15:08.949Z,50.20
2019-01-25T09:16:08.938Z,49.60
2019-01-25T09:17:08.942Z,47.00
2019-01-25T09:18:08.916Z,46.90
2019-01-25T09:19:09.605Z,49.80
2019-01-25T09:20:14.435Z,48.40
2019-01-25T09:21:09.880Z,49.90
2019-01-25T09:22:08.872Z,47.50
2019-01-25T09:23:08.866Z,48.80
2019-01-25T09:24:08.866Z,48.70
2019-01-25T09:25:08.838Z,47.30
2019-01-25T09:26:08.829Z,49.20
2019-01-25T09:27:08.818Z,49.80
2019-01-25T09:28:08.810Z,48.10
2019-01-25T09:29:08.811Z,47.70
2019-01-25T09:30:08.787Z,48.10
2019-01-25T09:31:08.778Z,49.10
2019-01-25T09:32:08.764Z,47.20
2019-01-25T09:33:08.753Z,46.40
2019-01-25T09:34:08.753Z,45.20
2019-01-25T09:35:08.736Z,47.30
2019-01-25T09:36:08.718Z,47.30
2019-01-25T09:37:08.712Z,45.30
2019-01-25T09:38:08.698Z,47.20
2019-01-25T09:39:08.700Z,48.30
2019-01-25T09:40:08.681Z,45.90
2019-01-25T09:41:08.682Z,47.40
2019-01-25T09:42:08.659Z,48.00
2019-01-25T09:43:08.644Z,46.80
2019-01-25T09:44:08.823Z,46.80
2019-01-25T09:45:08.621Z,47.10
2019-01-25T09:46:08.612Z,46.20
2019-01-25T09:47:08.603Z,46.30
2019-01-25T09:48:08.590Z,46.70
2019-01-25T09:49:08.578Z,47.90
2019-01-25T09:50:08.586Z,47.10
2019-01-25T09:51:08.557Z,47.30
2019-01-25T09:52:08.546Z,46.90
2019-01-25T09:53:08.534Z,45.30
2019-01-25T09:54:08.550Z,45.40
2019-01-25T09:55:08.527Z,45.40
2019-01-25T09:56:08.511Z,44.10
2019-01-25T09:57:08.493Z,44.80
2019-01-25T09:58:08.482Z,45.30
2019-01-25T09:59:08.473Z,45.60
2019-01-25T10:00:08.478Z,47.50
2019-01-25T10:01:08.452Z,43.70
2019-01-25T10:02:08.436Z,44.70
2019-01-25T10:03:08.430Z,44.50
2019-01-25T10:04:08.433Z,47.00
2019-01-25T10:05:08.421Z,45.90
2019-01-25T10:06:08.408Z,46.00
2019-01-25T10:07:08.390Z,44.60
2019-01-25T10:08:08.375Z,43.90
2019-01-25T10:09:08.363Z,44.90
2019-01-25T10:10:08.364Z,45.30
2019-01-25T10:11:08.341Z,45.50
2019-01-25T10:12:08.342Z,44.80
2019-01-25T10:13:08.319Z,45.00
2019-01-25T10:14:08.356Z,46.20
2019-01-25T10:15:08.318Z,44.70
2019-01-25T10:16:08.290Z,45.50
2019-01-25T10:17:08.277Z,46.10
2019-01-25T10:18:08.275Z,46.10
2019-01-25T10:19:08.263Z,46.90
2019-01-25T10:20:08.243Z,45.50
2019-01-25T10:21:08.247Z,47.40
2019-01-25T10:22:08.853Z,44.60
2019-01-25T10:23:08.211Z,44.20
2019-01-25T10:24:08.200Z,44.00
2019-01-25T10:25:08.194Z,44.30
2019-01-25T10:26:08.190Z,44.10
2019-01-25T10:27:08.167Z,44.40
2019-01-25T10:28:08.158Z,44.50
2019-01-25T10:29:08.149Z,44.90
2019-01-25T10:30:08.134Z,42.90
2019-01-25T10:31:08.141Z,43.10
2019-01-25T10:32:08.113Z,42.80
2019-01-25T10:33:08.102Z,44.30
2019-01-25T10:34:08.095Z,45.00
2019-01-25T10:35:08.085Z,41.80
2019-01-25T10:36:08.094Z,40.40
2019-01-25T10:37:08.058Z,41.70
2019-01-25T10:38:08.050Z,43.20
2019-01-25T10:39:08.037Z,42.00
2019-01-25T10:40:08.034Z,42.00
2019-01-25T10:41:08.034Z,41.70
2019-01-25T10:42:08.026Z,42.80
2019-01-25T10:43:07.995Z,42.10
2019-01-25T10:44:07.984Z,40.90
2019-01-25T10:45:07.972Z,40.40
2019-01-25T10:46:07.982Z,41.20
2019-01-25T10:47:07.954Z,41.10
2019-01-25T10:48:07.940Z,42.10
2019-01-25T10:49:07.928Z,41.00
2019-01-25T10:50:07.920Z,42.80
2019-01-25T10:51:07.919Z,43.40
2019-01-25T10:52:09.088Z,42.50
2019-01-25T10:53:07.916Z,44.70
2019-01-25T10:54:07.878Z,41.50
2019-01-25T10:55:07.864Z,42.10
2019-01-25T10:56:07.865Z,42.40
2019-01-25T10:57:07.842Z,42.80
2019-01-25T10:58:07.837Z,41.00
2019-01-25T10:59:07.823Z,45.80
2019-01-25T11:00:07.814Z,40.90
2019-01-25T11:01:07.819Z,43.10
2019-01-25T11:02:07.796Z,41.30
2019-01-25T11:03:07.780Z,41.30
2019-01-25T11:04:11.632Z,41.50
2019-01-25T11:05:07.779Z,41.40
2019-01-25T11:06:07.747Z,41.40
2019-01-25T11:07:07.752Z,40.40
2019-01-25T11:08:07.727Z,39.80
2019-01-25T11:09:07.713Z,40.50
2019-01-25T11:10:07.716Z,41.80
2019-01-25T11:11:07.695Z,41.10
2019-01-25T11:12:07.697Z,41.50
2019-01-25T11:13:07.671Z,41.30
2019-01-25T11:14:07.662Z,41.50
2019-01-25T11:15:07.648Z,38.70
2019-01-25T11:16:11.768Z,40.00
2019-01-25T11:17:07.651Z,41.20
2019-01-25T11:18:07.614Z,41.30
2019-01-25T11:19:07.603Z,42.30
2019-01-25T11:20:07.595Z,41.20
2019-01-25T11:21:07.583Z,41.00
2019-01-25T11:22:07.593Z,39.90
2019-01-25T11:23:07.562Z,39.90
2019-01-25T11:24:07.957Z,39.60
2019-01-25T11:25:07.538Z,40.70
2019-01-25T11:26:07.540Z,40.20
2019-01-25T11:27:07.549Z,40.70
2019-01-25T11:28:07.509Z,39.50
2019-01-25T11:29:07.512Z,41.00
2019-01-25T11:30:07.486Z,39.80
2019-01-25T11:31:07.488Z,40.10
2019-01-25T11:32:07.481Z,39.50
2019-01-25T11:33:07.455Z,40.30
2019-01-25T11:34:07.446Z,41.20
2019-01-25T11:35:07.432Z,40.40
2019-01-25T11:36:07.419Z,40.50
2019-01-25T11:37:07.443Z,39.00
2019-01-25T11:38:07.447Z,39.30
2019-01-25T11:39:07.388Z,40.10
2019-01-25T11:40:07.380Z,40.10
2019-01-25T11:41:07.371Z,40.60
2019-01-25T11:42:07.377Z,39.60
2019-01-25T11:43:08.789Z,40.90
2019-01-25T11:44:07.337Z,40.10
2019-01-25T11:45:07.330Z,39.30
2019-01-25T11:46:07.319Z,39.10
2019-01-25T11:47:07.314Z,39.00
2019-01-25T11:48:07.286Z,38.80
2019-01-25T11:49:07.275Z,39.00
2019-01-25T11:50:07.264Z,39.40
2019-01-25T11:51:07.253Z,39.10
2019-01-25T11:52:07.251Z,38.80
2019-01-25T11:53:07.244Z,37.60
2019-01-25T11:54:07.220Z,40.50
2019-01-25T11:55:07.216Z,39.60
2019-01-25T11:56:07.205Z,39.20
2019-01-25T11:57:07.224Z,39.20
2019-01-25T11:58:07.178Z,39.30
2019-01-25T11:59:07.176Z,39.20
2019-01-25T12:00:07.159Z,39.40
2019-01-25T12:01:07.141Z,38.00
2019-01-25T12:02:07.130Z,38.20
2019-01-25T12:03:07.129Z,38.20
2019-01-25T12:04:07.120Z,39.00
2019-01-25T12:05:07.096Z,37.80
2019-01-25T12:06:07.086Z,39.70
2019-01-25T12:07:07.075Z,39.50
2019-01-25T12:08:07.072Z,39.30
2019-01-25T12:09:07.052Z,39.30
2019-01-25T12:10:07.051Z,38.50
2019-01-25T12:11:07.029Z,37.30
2019-01-25T12:12:07.021Z,37.30
2019-01-25T12:13:07.046Z,38.00
2019-01-25T12:14:06.997Z,39.00
2019-01-25T12:15:06.992Z,37.20
2019-01-25T12:16:06.979Z,38.10
2019-01-25T12:17:06.964Z,38.00
2019-01-25T12:18:06.962Z,37.80
2019-01-25T12:19:06.942Z,38.20
2019-01-25T12:20:06.930Z,37.80
2019-01-25T12:21:06.923Z,39.00
2019-01-25T12:22:06.908Z,37.50
2019-01-25T12:23:06.914Z,39.20
2019-01-25T12:24:06.925Z,39.20
2019-01-25T12:25:06.876Z,39.10
2019-01-25T12:26:06.863Z,39.70
2019-01-25T12:27:06.854Z,38.00
2019-01-25T12:28:06.873Z,37.00
2019-01-25T12:29:06.829Z,38.50
2019-01-25T12:30:06.817Z,38.20
2019-01-25T12:31:06.806Z,38.70
2019-01-25T12:32:06.802Z,37.40
2019-01-25T12:33:06.785Z,36.90
2019-01-25T12:34:06.792Z,37.60
2019-01-25T12:35:07.520Z,37.40
2019-01-25T12:36:06.752Z,37.20
2019-01-25T12:37:06.742Z,37.80
2019-01-25T12:38:06.729Z,37.50
2019-01-25T12:39:06.741Z,36.90
2019-01-25T12:40:06.714Z,38.30
2019-01-25T12:41:06.697Z,37.20
2019-01-25T12:42:06.687Z,38.10
2019-01-25T12:43:06.676Z,38.60
2019-01-25T12:44:06.688Z,36.10
2019-01-25T12:45:06.658Z,37.70
2019-01-25T12:46:06.651Z,36.10
2019-01-25T12:47:06.628Z,35.30
2019-01-25T12:48:06.621Z,38.10
2019-01-25T12:49:06.618Z,36.80
2019-01-25T12:50:06.596Z,37.30
2019-01-25T12:51:06.586Z,37.20
2019-01-25T12:52:08.299Z,36.90